createdAt,value
2017-12-24T00:02:20.894Z,88.90
2017-12-24T00:04:48.680Z,81.77
2017-12-24T00:07:16.601Z,77.00
2017-12-24T00:09:44.237Z,77.73
2017-12-24T00:12:11.791Z,72.73
2017-12-24T00:14:39.386Z,75.83
2017-12-24T00:17:06.942Z,74.93
2017-12-24T00:19:34.479Z,72.30
2017-12-24T00:22:02.030Z,69.57
2017-12-24T00:24:29.612Z,74.37
2017-12-24T00:26:57.171Z,65.37
2017-12-24T00:29:24.740Z,73.33
2017-12-24T00:31:52.342Z,68.80
2017-12-24T00:34:19.898Z,71.07
2017-12-24T00:36:47.510Z,66.20
2017-12-24T00:39:15.042Z,76.07
2017-12-24T00:41:42.601Z,63.73
2017-12-24T00:44:10.152Z,69.47
2017-12-24T00:46:37.715Z,76.23
2017-12-24T00:49:05.290Z,74.53
2017-12-24T00:51:32.828Z,68.50
2017-12-24T00:54:00.653Z,68.23
2017-12-24T00:56:28.240Z,85.90
2017-12-24T00:58:55.869Z,82.20
2017-12-24T01:01:23.454Z,75.93
2017-12-24T01:03:51.459Z,83.47
2017-12-24T01:06:19.035Z,73.23
2017-12-24T01:08:46.587Z,69.30
2017-12-24T01:11:14.165Z,74.23
2017-12-24T01:13:41.710Z,68.90
2017-12-24T01:16:09.530Z,75.00
2017-12-24T01:18:37.105Z,74.40
2017-12-24T01:21:04.775Z,71.50
2017-12-24T01:23:32.438Z,93.70
2017-12-24T01:25:59.968Z,99.60
2017-12-24T01:28:27.521Z,95.07
2017-12-24T01:30:55.138Z,83.00
2017-12-24T01:33:22.663Z,98.47
2017-12-24T01:35:50.315Z,90.90
2017-12-24T01:38:17.912Z,86.60
2017-12-24T01:40:45.494Z,82.50
2017-12-24T01:43:13.071Z,75.23
2017-12-24T01:45:40.918Z,98.43
2017-12-24T01:48:08.699Z,92.03
2017-12-24T01:50:36.273Z,77.07
2017-12-24T01:53:03.828Z,89.60
2017-12-24T01:55:31.421Z,94.53
2017-12-24T01:57:58.945Z,90.27
2017-12-24T02:00:26.518Z,82.10
2017-12-24T02:02:54.137Z,78.07
2017-12-24T02:05:21.673Z,71.17
2017-12-24T02:07:49.200Z,80.10
2017-12-24T02:10:17.367Z,80.47
2017-12-24T02:12:44.892Z,67.50
2017-12-24T02:15:12.450Z,81.50
2017-12-24T02:17:40.013Z,85.77
2017-12-24T02:20:07.596Z,87.80
2017-12-24T02:22:35.124Z,86.10
2017-12-24T02:25:02.687Z,86.60
2017-12-24T02:27:30.564Z,89.63
2017-12-24T02:29:58.131Z,89.00
2017-12-24T02:32:25.932Z,92.47
2017-12-24T02:34:53.554Z,79.43
2017-12-24T02:37:21.270Z,65.80
2017-12-24T02:39:48.829Z,60.73
2017-12-24T02:42:16.634Z,72.10
2017-12-24T02:44:44.165Z,82.53
2017-12-24T02:47:11.734Z,76.43
2017-12-24T02:49:39.310Z,73.43
2017-12-24T02:52:06.831Z,78.40
2017-12-24T02:54:34.439Z,87.63
2017-12-24T02:57:02.043Z,75.20
2017-12-24T02:59:29.975Z,94.07
2017-12-24T03:01:57.513Z,112.13
2017-12-24T03:04:25.203Z,71.63
2017-12-24T03:06:52.829Z,89.53
2017-12-24T03:09:20.394Z,92.17
2017-12-24T03:11:47.912Z,91.57
2017-12-24T03:14:15.523Z,89.60
2017-12-24T03:16:43.094Z,112.30
2017-12-24T03:19:10.653Z,77.07
2017-12-24T03:21:38.583Z,97.50
2017-12-24T03:24:06.108Z,90.80
2017-12-24T03:26:33.650Z,84.33
2017-12-24T03:29:01.443Z,86.77
2017-12-24T03:31:28.965Z,78.63
2017-12-24T03:33:56.693Z,89.07
2017-12-24T03:36:24.296Z,97.90
2017-12-24T03:38:51.866Z,87.20
2017-12-24T03:41:19.468Z,90.33
2017-12-24T03:43:47.189Z,109.07
2017-12-24T03:46:14.787Z,91.23
2017-12-24T03:48:42.369Z,89.73
2017-12-24T03:51:09.910Z,102.20
2017-12-24T03:53:37.688Z,93.23
2017-12-24T03:56:05.285Z,96.43
2017-12-24T03:58:32.934Z,71.60
2017-12-24T04:01:00.494Z,98.13
2017-12-24T04:03:28.529Z,96.90
2017-12-24T04:05:56.099Z,84.73
2017-12-24T04:08:23.653Z,102.07
2017-12-24T04:10:51.203Z,107.63
2017-12-24T04:13:18.992Z,110.77
2017-12-24T04:15:46.559Z,113.40
2017-12-24T04:18:14.311Z,102.97
2017-12-24T04:20:41.883Z,106.97
2017-12-24T04:23:09.410Z,97.83
2017-12-24T04:25:36.976Z,131.87
2017-12-24T04:28:04.534Z,142.57
2017-12-24T04:30:32.305Z,95.20
2017-12-24T04:32:59.870Z,116.07
2017-12-24T04:35:27.447Z,122.20
2017-12-24T04:37:54.995Z,118.47
2017-12-24T04:40:22.531Z,131.07
2017-12-24T04:42:50.142Z,143.87
2017-12-24T04:45:17.681Z,127.57
2017-12-24T04:47:45.240Z,133.53
2017-12-24T04:50:12.841Z,113.03
2017-12-24T04:52:40.415Z,137.83
2017-12-24T04:55:08.010Z,140.23
2017-12-24T04:57:35.553Z,144.07
2017-12-24T05:00:03.485Z,135.20
2017-12-24T05:02:31.070Z,158.70
2017-12-24T05:04:58.612Z,137.97
2017-12-24T05:07:26.193Z,161.50
2017-12-24T05:09:54.826Z,157.70
2017-12-24T05:12:22.475Z,154.13
2017-12-24T05:14:50.145Z,166.30
2017-12-24T05:17:17.746Z,160.40
2017-12-24T05:19:45.297Z,147.03
2017-12-24T05:22:12.849Z,162.33
2017-12-24T05:24:40.394Z,150.70
2017-12-24T05:27:07.994Z,152.67
2017-12-24T05:29:35.799Z,140.70
2017-12-24T05:32:03.402Z,162.03
2017-12-24T05:34:30.941Z,167.63
2017-12-24T05:36:58.498Z,171.30
2017-12-24T05:39:26.071Z,145.57
2017-12-24T05:41:53.669Z,169.40
2017-12-24T05:44:21.234Z,155.60
2017-12-24T05:46:48.812Z,158.17
2017-12-24T05:49:16.436Z,139.77
2017-12-24T05:51:44.013Z,149.53
2017-12-24T05:54:11.648Z,159.97
2017-12-24T05:56:39.247Z,149.77
2017-12-24T05:59:06.810Z,119.43
2017-12-24T06:01:34.397Z,162.43
2017-12-24T06:04:01.940Z,131.40
2017-12-24T06:06:29.520Z,144.67
2017-12-24T06:08:57.147Z,149.57
2017-12-24T06:11:24.768Z,138.70
2017-12-24T06:13:52.337Z,136.50
2017-12-24T06:16:19.945Z,128.60
2017-12-24T06:18:47.491Z,108.97
2017-12-24T06:21:15.051Z,106.30
2017-12-24T06:23:42.627Z,103.97
2017-12-24T06:26:10.175Z,88.17
2017-12-24T06:28:37.704Z,103.47
2017-12-24T06:31:05.286Z,98.30
2017-12-24T06:33:32.871Z,84.40
2017-12-24T06:36:00.429Z,92.50
2017-12-24T06:38:28.042Z,77.87
2017-12-24T06:40:55.596Z,74.50
2017-12-24T06:43:23.190Z,89.50
2017-12-24T06:45:51.087Z,87.20
2017-12-24T06:48:18.622Z,71.90
2017-12-24T06:50:46.140Z,86.10
2017-12-24T06:53:13.731Z,66.20
2017-12-24T06:55:41.267Z,74.37
2017-12-24T06:58:09.194Z,64.77
2017-12-24T07:00:36.725Z,48.90
2017-12-24T07:03:04.240Z,74.00
2017-12-24T07:05:32.144Z,82.77
2017-12-24T07:07:59.678Z,69.47
2017-12-24T07:10:27.215Z,78.40
2017-12-24T07:12:55.916Z,55.73
2017-12-24T07:15:23.525Z,55.63
2017-12-24T07:17:51.085Z,59.60
2017-12-24T07:20:18.632Z,65.63
2017-12-24T07:22:46.173Z,61.43
2017-12-24T07:25:13.738Z,75.77
2017-12-24T07:27:41.681Z,76.47
2017-12-24T07:30:09.196Z,85.67
2017-12-24T07:32:36.720Z,78.67
2017-12-24T07:35:04.523Z,74.53
2017-12-24T07:37:32.047Z,73.33
2017-12-24T07:39:59.556Z,56.10
2017-12-24T07:42:27.161Z,82.60
2017-12-24T07:44:54.756Z,50.33
2017-12-24T07:47:22.280Z,71.73
2017-12-24T07:49:49.820Z,63.93
2017-12-24T07:52:17.408Z,55.90
2017-12-24T07:54:44.969Z,59.50
2017-12-24T07:57:12.561Z,41.33
2017-12-24T07:59:40.126Z,60.60
2017-12-24T08:02:07.679Z,53.70
2017-12-24T08:04:35.200Z,52.00
2017-12-24T08:07:02.813Z,55.20
2017-12-24T08:09:30.346Z,60.87
2017-12-24T08:11:57.942Z,46.10
2017-12-24T08:14:25.856Z,58.03
2017-12-24T08:16:53.449Z,46.67
2017-12-24T08:19:20.985Z,51.23
2017-12-24T08:21:48.598Z,44.83
2017-12-24T08:24:16.174Z,47.33
2017-12-24T08:26:43.741Z,38.60
2017-12-24T08:29:11.354Z,26.17
2017-12-24T08:31:38.867Z,33.67
2017-12-24T08:34:06.453Z,42.17
2017-12-24T08:36:34.006Z,43.77
2017-12-24T08:39:01.562Z,50.37
2017-12-24T08:41:29.089Z,52.50
2017-12-24T08:43:56.715Z,46.60
2017-12-24T08:46:24.271Z,46.47
2017-12-24T08:48:51.917Z,49.10
2017-12-24T08:51:19.481Z,50.13
2017-12-24T08:53:47.037Z,51.37
2017-12-24T08:56:14.649Z,38.03
2017-12-24T08:58:42.354Z,40.33
2017-12-24T09:01:09.878Z,43.30
2017-12-24T09:03:37.425Z,47.73
2017-12-24T09:06:05.046Z,44.13
2017-12-24T09:08:32.571Z,50.83
2017-12-24T09:11:00.092Z,57.30
2017-12-24T09:13:27.678Z,55.90
2017-12-24T09:15:55.474Z,61.07
2017-12-24T09:18:23.373Z,65.53
2017-12-24T09:20:51.023Z,63.93
2017-12-24T09:23:18.588Z,69.17
2017-12-24T09:25:46.374Z,51.67
2017-12-24T09:28:13.957Z,53.37
2017-12-24T09:30:41.514Z,50.50
2017-12-24T09:33:09.458Z,61.33
2017-12-24T09:35:37.010Z,60.90
2017-12-24T09:38:04.544Z,65.93
2017-12-24T09:40:32.117Z,47.67
2017-12-24T09:42:59.715Z,66.57
2017-12-24T09:45:27.272Z,44.70
2017-12-24T09:47:54.933Z,44.50
2017-12-24T09:50:22.606Z,52.93
2017-12-24T09:52:50.257Z,45.73
2017-12-24T09:55:18.314Z,44.00
2017-12-24T09:57:45.965Z,34.90
2017-12-24T10:00:13.899Z,50.70
2017-12-24T10:02:41.428Z,36.17
2017-12-24T10:05:08.981Z,40.93
2017-12-24T10:07:36.613Z,39.20
2017-12-24T10:10:04.411Z,38.17
2017-12-24T10:12:32.042Z,36.67
2017-12-24T10:14:59.570Z,38.13
2017-12-24T10:17:27.146Z,28.60
2017-12-24T10:19:54.684Z,23.77
2017-12-24T10:22:22.254Z,25.33
2017-12-24T10:24:49.800Z,20.80
2017-12-24T10:27:17.343Z,25.13
2017-12-24T10:29:44.847Z,21.63
2017-12-24T10:32:12.470Z,22.10
2017-12-24T10:34:40.018Z,18.33
2017-12-24T10:37:07.531Z,15.53
2017-12-24T10:39:35.095Z,23.53
2017-12-24T10:42:02.612Z,25.17
2017-12-24T10:44:30.244Z,26.77
2017-12-24T10:46:58.357Z,23.63
2017-12-24T10:49:25.893Z,30.53
2017-12-24T10:51:53.504Z,36.47
2017-12-24T10:54:21.137Z,30.80
2017-12-24T10:56:48.806Z,32.83
2017-12-24T10:59:16.390Z,31.07
2017-12-24T11:01:44.002Z,30.33
2017-12-24T11:04:11.584Z,39.03
2017-12-24T11:06:39.165Z,36.73
2017-12-24T11:09:06.760Z,34.00
2017-12-24T11:11:34.314Z,40.70
2017-12-24T11:14:01.861Z,38.00
2017-12-24T11:16:29.641Z,40.47
2017-12-24T11:18:57.252Z,37.13
2017-12-24T11:21:24.906Z,45.37
2017-12-24T11:23:52.478Z,49.07
2017-12-24T11:26:20.052Z,41.90
2017-12-24T11:28:47.709Z,46.13
2017-12-24T11:31:15.350Z,42.13
2017-12-24T11:33:42.954Z,44.50
2017-12-24T11:36:10.590Z,44.07
2017-12-24T11:38:38.122Z,43.63
2017-12-24T11:41:05.850Z,48.47
2017-12-24T11:43:33.376Z,40.50
2017-12-24T11:46:01.257Z,49.00
2017-12-24T11:48:33.763Z,41.67
2017-12-24T11:51:01.772Z,42.90
2017-12-24T11:53:29.336Z,44.63
2017-12-24T11:55:56.997Z,38.93
2017-12-24T11:58:24.592Z,44.00
2017-12-24T12:00:52.251Z,45.77
2017-12-24T12:03:20.235Z,38.97
2017-12-24T12:05:48.070Z,42.03
2017-12-24T12:08:15.855Z,42.03
2017-12-24T12:10:43.644Z,54.87
2017-12-24T12:13:11.350Z,41.50
2017-12-24T12:15:38.911Z,38.20
2017-12-24T12:18:06.649Z,41.60
2017-12-24T12:20:34.240Z,37.73
2017-12-24T12:23:01.845Z,26.50
2017-12-24T12:25:29.578Z,30.50
2017-12-24T12:27:57.212Z,25.90
2017-12-24T12:30:24.769Z,25.63
2017-12-24T12:32:52.363Z,34.10
2017-12-24T12:35:19.968Z,26.83
2017-12-24T12:37:47.583Z,31.87
2017-12-24T12:40:15.327Z,31.20
2017-12-24T12:42:43.027Z,38.93
2017-12-24T12:45:10.731Z,41.77
2017-12-24T12:47:38.313Z,31.10
2017-12-24T12:50:05.917Z,35.53
2017-12-24T12:52:33.469Z,30.63
2017-12-24T12:55:01.027Z,37.13
2017-12-24T12:57:28.606Z,40.60
2017-12-24T12:59:56.524Z,34.83
2017-12-24T13:02:24.226Z,40.13
2017-12-24T13:04:51.879Z,39.80
2017-12-24T13:07:19.439Z,34.87
2017-12-24T13:09:47.082Z,45.23
2017-12-24T13:12:14.613Z,54.83
2017-12-24T13:14:42.479Z,54.83
2017-12-24T13:17:10.069Z,46.80
2017-12-24T13:19:37.605Z,48.40
2017-12-24T13:22:05.656Z,54.73
2017-12-24T13:24:33.225Z,49.77
2017-12-24T13:27:01.056Z,54.73
2017-12-24T13:29:28.701Z,40.40
2017-12-24T13:31:56.276Z,67.03
2017-12-24T13:34:24.002Z,61.53
2017-12-24T13:36:51.696Z,55.43
2017-12-24T13:39:19.257Z,59.40
2017-12-24T13:41:46.825Z,52.97
2017-12-24T13:44:14.413Z,64.23
2017-12-24T13:46:41.968Z,49.90
2017-12-24T13:49:09.505Z,57.30
2017-12-24T13:51:37.403Z,46.77
2017-12-24T13:54:04.956Z,44.90
2017-12-24T13:56:32.540Z,35.00
2017-12-24T13:59:00.331Z,38.90
2017-12-24T14:01:28.351Z,35.43
2017-12-24T14:03:55.867Z,30.80
2017-12-24T14:06:23.423Z,26.03
2017-12-24T14:08:51.018Z,27.87
2017-12-24T14:11:18.624Z,24.53
2017-12-24T14:13:46.250Z,26.20
2017-12-24T14:16:13.835Z,21.37
2017-12-24T14:18:41.525Z,16.50
2017-12-24T14:21:09.138Z,24.23
2017-12-24T14:23:36.698Z,23.00
2017-12-24T14:26:04.857Z,27.97
2017-12-24T14:28:32.494Z,17.80
2017-12-24T14:31:00.166Z,14.40
2017-12-24T14:33:27.761Z,21.13
2017-12-24T14:35:55.706Z,17.50
2017-12-24T14:38:23.257Z,17.40
2017-12-24T14:40:50.759Z,17.73
2017-12-24T14:43:18.896Z,12.13
2017-12-24T14:45:46.424Z,17.60
2017-12-24T14:48:14.037Z,19.20
2017-12-24T14:50:41.588Z,19.60
2017-12-24T14:53:09.186Z,26.47
2017-12-24T14:55:36.865Z,37.50
2017-12-24T14:58:04.521Z,17.77
2017-12-24T15:00:32.073Z,13.87
2017-12-24T15:02:59.626Z,16.77
2017-12-24T15:05:27.253Z,17.27
2017-12-24T15:07:54.772Z,21.87
2017-12-24T15:10:22.509Z,27.80
2017-12-24T15:12:50.496Z,15.87
2017-12-24T15:15:18.077Z,21.27
2017-12-24T15:17:46.155Z,15.30
2017-12-24T15:20:15.560Z,21.90
2017-12-24T15:22:44.832Z,18.70
2017-12-24T15:25:15.691Z,20.20
2017-12-24T15:27:44.596Z,20.07
2017-12-24T15:30:13.862Z,17.10
2017-12-24T15:32:41.722Z,16.00
2017-12-24T15:35:11.689Z,25.00
2017-12-24T15:37:39.438Z,14.60
2017-12-24T15:40:07.113Z,23.53
2017-12-24T15:42:34.697Z,25.43
2017-12-24T15:45:02.271Z,22.70
2017-12-24T15:47:29.792Z,24.60
2017-12-24T15:49:57.442Z,19.37
2017-12-24T15:52:24.994Z,16.10
2017-12-24T15:54:52.532Z,21.90
2017-12-24T15:57:20.434Z,33.53
2017-12-24T15:59:47.982Z,20.03
2017-12-24T16:02:15.783Z,16.87
2017-12-24T16:04:43.524Z,22.43
2017-12-24T16:07:11.073Z,18.50
2017-12-24T16:09:38.694Z,24.20
2017-12-24T16:12:06.380Z,23.40
2017-12-24T16:14:33.901Z,24.63
2017-12-24T16:17:01.483Z,20.07
2017-12-24T16:19:29.053Z,21.00
2017-12-24T16:21:56.576Z,28.90
2017-12-24T16:24:24.099Z,29.80
2017-12-24T16:26:51.657Z,27.57
2017-12-24T16:29:19.286Z,28.93
2017-12-24T16:31:46.849Z,29.33
2017-12-24T16:34:14.408Z,30.20
2017-12-24T16:36:42.415Z,35.10
2017-12-24T16:39:11.646Z,33.77
2017-12-24T16:41:39.411Z,32.20
2017-12-24T16:44:06.966Z,29.07
2017-12-24T16:46:34.558Z,30.63
2017-12-24T16:49:02.423Z,31.40
2017-12-24T16:51:29.988Z,32.83
2017-12-24T16:53:57.593Z,27.20
2017-12-24T16:56:25.195Z,34.90
2017-12-24T16:58:52.830Z,30.67
2017-12-24T17:01:20.424Z,34.77
2017-12-24T17:03:47.952Z,38.33
2017-12-24T17:06:15.545Z,33.03
2017-12-24T17:08:43.166Z,41.50
2017-12-24T17:11:10.678Z,32.80
2017-12-24T17:13:38.200Z,25.47
2017-12-24T17:16:05.785Z,39.70
2017-12-24T17:18:33.412Z,47.53
2017-12-24T17:21:01.088Z,38.50
2017-12-24T17:23:28.678Z,45.60
2017-12-24T17:25:56.334Z,43.37
2017-12-24T17:28:24.099Z,54.67
2017-12-24T17:30:51.795Z,46.73
2017-12-24T17:33:19.618Z,46.40
2017-12-24T17:35:47.234Z,54.43
2017-12-24T17:38:14.793Z,59.00
2017-12-24T17:40:42.309Z,58.03
2017-12-24T17:43:09.885Z,54.03
2017-12-24T17:45:37.645Z,47.23
2017-12-24T17:48:05.213Z,54.53
2017-12-24T17:50:32.752Z,53.93
2017-12-24T17:53:00.325Z,56.33
2017-12-24T17:55:27.879Z,53.27
2017-12-24T17:57:55.486Z,52.77
2017-12-24T18:00:23.059Z,55.37
2017-12-24T18:02:50.592Z,50.80
2017-12-24T18:05:18.219Z,60.77
2017-12-24T18:07:45.802Z,48.07
2017-12-24T18:10:13.455Z,56.07
2017-12-24T18:12:41.529Z,52.13
2017-12-24T18:15:09.135Z,52.60
2017-12-24T18:17:36.660Z,57.00
2017-12-24T18:20:04.247Z,51.70
2017-12-24T18:22:31.813Z,47.00
2017-12-24T18:24:59.412Z,42.17
2017-12-24T18:27:26.948Z,44.50
2017-12-24T18:29:54.496Z,47.67
2017-12-24T18:32:22.134Z,38.00
2017-12-24T18:34:49.665Z,35.90
2017-12-24T18:37:17.654Z,35.37
2017-12-24T18:39:45.210Z,35.93
2017-12-24T18:42:12.893Z,27.53
2017-12-24T18:44:40.392Z,30.77
2017-12-24T18:47:07.955Z,25.50
2017-12-24T18:49:35.772Z,35.97
2017-12-24T18:52:03.960Z,23.40
2017-12-24T18:54:31.479Z,27.10
2017-12-24T18:56:59.106Z,31.30
2017-12-24T18:59:26.662Z,26.83
2017-12-24T19:01:54.458Z,34.33
2017-12-24T19:04:22.449Z,27.70
2017-12-24T19:06:50.005Z,28.00
2017-12-24T19:09:17.561Z,23.53
2017-12-24T19:11:45.164Z,20.70
2017-12-24T19:14:12.687Z,20.23
2017-12-24T19:16:40.324Z,21.63
2017-12-24T19:19:08.385Z,23.90
2017-12-24T19:21:36.045Z,24.70
2017-12-24T19:24:03.745Z,16.47
2017-12-24T19:26:31.385Z,21.73
2017-12-24T19:28:59.021Z,18.37
2017-12-24T19:31:26.634Z,18.97
2017-12-24T19:33:54.216Z,20.50
2017-12-24T19:36:21.916Z,20.50
2017-12-24T19:38:49.807Z,19.47
2017-12-24T19:41:17.504Z,14.33
2017-12-24T19:43:45.227Z,16.67
2017-12-24T19:46:13.022Z,19.17
2017-12-24T19:48:40.603Z,10.90
2017-12-24T19:51:08.377Z,12.43
2017-12-24T19:53:36.051Z,10.30
2017-12-24T19:56:03.666Z,9.27
2017-12-24T19:58:31.266Z,14.83
2017-12-24T20:00:58.887Z,9.57
2017-12-24T20:03:26.437Z,9.20
2017-12-24T20:05:53.960Z,10.90
2017-12-24T20:08:21.566Z,12.70
2017-12-24T20:10:49.354Z,11.17
2017-12-24T20:13:16.923Z,15.17
2017-12-24T20:15:44.530Z,10.53
2017-12-24T20:18:12.100Z,11.33
2017-12-24T20:20:39.617Z,12.47
2017-12-24T20:23:07.336Z,13.13
2017-12-24T20:25:34.986Z,11.30
2017-12-24T20:28:02.529Z,9.10
2017-12-24T20:30:30.463Z,12.87
2017-12-24T20:32:58.136Z,14.07
2017-12-24T20:35:25.690Z,9.90
2017-12-24T20:37:53.385Z,10.03
2017-12-24T20:40:21.169Z,16.07
2017-12-24T20:42:48.765Z,12.90
2017-12-24T20:45:16.327Z,11.77
2017-12-24T20:47:43.887Z,11.07
2017-12-24T20:50:11.548Z,11.43
2017-12-24T20:52:39.458Z,10.60
2017-12-24T20:55:07.080Z,13.67
2017-12-24T20:57:34.690Z,11.13
2017-12-24T21:00:02.304Z,12.70
2017-12-24T21:02:30.295Z,12.13
2017-12-24T21:04:57.849Z,11.40
2017-12-24T21:07:25.446Z,15.83
2017-12-24T21:09:53.037Z,13.87
2017-12-24T21:12:20.564Z,12.00
2017-12-24T21:14:48.520Z,14.53
2017-12-24T21:17:16.193Z,15.03
2017-12-24T21:19:43.715Z,11.90
2017-12-24T21:22:11.294Z,16.03
2017-12-24T21:24:38.865Z,15.13
2017-12-24T21:27:06.384Z,15.57
2017-12-24T21:29:33.994Z,13.83
2017-12-24T21:32:01.561Z,11.80
2017-12-24T21:34:29.077Z,15.43
2017-12-24T21:36:56.780Z,14.63
2017-12-24T21:39:24.453Z,14.77
2017-12-24T21:41:52.444Z,15.07
2017-12-24T21:44:20.025Z,16.17
2017-12-24T21:46:47.689Z,15.33
2017-12-24T21:49:15.270Z,14.60
2017-12-24T21:51:42.835Z,13.40
2017-12-24T21:54:10.373Z,13.00
2017-12-24T21:56:37.943Z,12.03
2017-12-24T21:59:05.458Z,15.47
2017-12-24T22:01:33.134Z,20.17
2017-12-24T22:04:00.763Z,15.43
2017-12-24T22:06:28.275Z,16.40
2017-12-24T22:08:55.827Z,16.60
2017-12-24T22:11:23.402Z,16.73
2017-12-24T22:13:50.970Z,19.20
2017-12-24T22:16:18.980Z,26.37
2017-12-24T22:18:46.656Z,15.80
2017-12-24T22:21:14.218Z,18.20
2017-12-24T22:23:41.827Z,15.80
2017-12-24T22:26:09.372Z,18.97
2017-12-24T22:28:36.945Z,18.00
2017-12-24T22:31:04.543Z,15.17
2017-12-24T22:33:32.113Z,18.97
2017-12-24T22:35:59.678Z,26.40
2017-12-24T22:38:27.257Z,18.27
2017-12-24T22:40:54.779Z,26.93
2017-12-24T22:43:22.378Z,24.40
2017-12-24T22:45:49.938Z,21.53
2017-12-24T22:48:17.503Z,23.80
2017-12-24T22:50:45.416Z,28.40
2017-12-24T22:53:13.196Z,24.77
2017-12-24T22:55:40.764Z,26.90
2017-12-24T22:58:08.310Z,28.50
2017-12-24T23:00:35.884Z,31.57
2017-12-24T23:03:03.448Z,26.80
2017-12-24T23:05:31.024Z,29.67
2017-12-24T23:07:58.938Z,35.83
2017-12-24T23:10:26.507Z,39.30
2017-12-24T23:12:54.080Z,30.13
2017-12-24T23:15:21.678Z,37.23
2017-12-24T23:17:49.206Z,28.97
2017-12-24T23:20:16.811Z,35.17
2017-12-24T23:22:44.370Z,34.90
2017-12-24T23:25:11.899Z,26.97
2017-12-24T23:27:39.494Z,32.70
2017-12-24T23:30:07.271Z,30.47
2017-12-24T23:32:35.182Z,37.20
2017-12-24T23:35:02.763Z,35.00
2017-12-24T23:37:30.322Z,32.77
2017-12-24T23:39:57.906Z,31.17
2017-12-24T23:42:25.463Z,30.10
2017-12-24T23:44:53.048Z,35.60
2017-12-24T23:47:20.627Z,34.30
2017-12-24T23:49:48.160Z,32.83
2017-12-24T23:52:15.758Z,37.27
2017-12-24T23:54:43.312Z,37.43
2017-12-24T23:57:10.943Z,32.27
2017-12-24T23:59:38.510Z,36.77
